sensor_id;sensor_type;location;lat;lon;timestamp;temperature;humidity
12119;DHT22;6123;48.864;9.200;2022-12-18T00:01:58;-7.80;99.90
12119;DHT22;6123;48.864;9.200;2022-12-18T00:04:27;-7.80;99.90
12119;DHT22;6123;48.864;9.200;2022-12-18T00:06:53;-7.80;99.90
12119;DHT22;6123;48.864;9.200;2022-12-18T00:09:19;-7.80;99.90
12119;DHT22;6123;48.864;9.200;2022-12-18T00:11:45;-8.00;99.90
12119;DHT22;6123;48.864;9.200;2022-12-18T00:14:12;-8.10;99.90
12119;DHT22;6123;48.864;9.200;2022-12-18T00:16:38;-8.30;99.90
12119;DHT22;6123;48.864;9.200;2022-12-18T00:19:05;-8.40;99.90
12119;DHT22;6123;48.864;9.200;2022-12-18T00:21:32;-8.40;99.90
12119;DHT22;6123;48.864;9.200;2022-12-18T00:23:59;-8.40;99.90
12119;DHT22;6123;48.864;9.200;2022-12-18T00:26:30;-8.20;99.90
12119;DHT22;6123;48.864;9.200;2022-12-18T00:28:59;-8.10;99.90
12119;DHT22;6123;48.864;9.200;2022-12-18T00:31:28;-8.20;99.90
12119;DHT22;6123;48.864;9.200;2022-12-18T00:33:55;-8.10;99.90
12119;DHT22;6123;48.864;9.200;2022-12-18T00:36:26;-8.10;99.90
12119;DHT22;6123;48.864;9.200;2022-12-18T00:38:53;-8.20;99.90
12119;DHT22;6123;48.864;9.200;2022-12-18T00:41:19;-8.30;99.90
12119;DHT22;6123;48.864;9.200;2022-12-18T00:44:04;-8.40;99.90
12119;DHT22;6123;48.864;9.200;2022-12-18T00:46:30;-8.50;99.90
12119;DHT22;6123;48.864;9.200;2022-12-18T00:48:57;-8.50;99.90
12119;DHT22;6123;48.864;9.200;2022-12-18T00:51:23;-8.60;99.90
12119;DHT22;6123;48.864;9.200;2022-12-18T00:53:49;-8.60;99.90
12119;DHT22;6123;48.864;9.200;2022-12-18T00:56:14;-8.50;99.90
12119;DHT22;6123;48.864;9.200;2022-12-18T00:58:40;-8.50;99.90
12119;DHT22;6123;48.864;9.200;2022-12-18T01:01:06;-8.40;99.90
12119;DHT22;6123;48.864;9.200;2022-12-18T01:03:34;-8.40;99.90
12119;DHT22;6123;48.864;9.200;2022-12-18T01:06:06;-8.20;99.90
12119;DHT22;6123;48.864;9.200;2022-12-18T01:08:33;-8.00;99.90
12119;DHT22;6123;48.864;9.200;2022-12-18T01:10:59;-7.70;99.90
12119;DHT22;6123;48.864;9.200;2022-12-18T01:13:25;-7.70;99.90
12119;DHT22;6123;48.864;9.200;2022-12-18T01:15:56;-7.70;99.90
12119;DHT22;6123;48.864;9.200;2022-12-18T01:18:21;-7.70;99.90
12119;DHT22;6123;48.864;9.200;2022-12-18T01:20:47;-7.70;99.90
12119;DHT22;6123;48.864;9.200;2022-12-18T01:23:12;-7.70;99.90
12119;DHT22;6123;48.864;9.200;2022-12-18T01:25:40;-7.70;99.90
12119;DHT22;6123;48.864;9.200;2022-12-18T01:28:06;-7.60;99.90
12119;DHT22;6123;48.864;9.200;2022-12-18T01:30:31;-7.70;99.90
12119;DHT22;6123;48.864;9.200;2022-12-18T01:32:57;-7.60;99.90
12119;DHT22;6123;48.864;9.200;2022-12-18T01:35:23;-7.60;99.90
12119;DHT22;6123;48.864;9.200;2022-12-18T01:37:48;-7.60;99.90
12119;DHT22;6123;48.864;9.200;2022-12-18T01:40:16;-7.70;99.90
12119;DHT22;6123;48.864;9.200;2022-12-18T01:42:42;-7.70;99.90
12119;DHT22;6123;48.864;9.200;2022-12-18T01:52:47;-7.80;99.90
12119;DHT22;6123;48.864;9.200;2022-12-18T01:55:14;-7.90;99.90
12119;DHT22;6123;48.864;9.200;2022-12-18T01:57:42;-8.00;99.90
12119;DHT22;6123;48.864;9.200;2022-12-18T02:00:11;-7.90;99.90
12119;DHT22;6123;48.864;9.200;2022-12-18T02:02:37;-8.00;99.90
12119;DHT22;6123;48.864;9.200;2022-12-18T02:05:04;-7.80;99.90
12119;DHT22;6123;48.864;9.200;2022-12-18T02:12:43;-7.60;99.90
12119;DHT22;6123;48.864;9.200;2022-12-18T02:15:15;-7.70;99.90
12119;DHT22;6123;48.864;9.200;2022-12-18T02:17:52;-7.70;99.90
12119;DHT22;6123;48.864;9.200;2022-12-18T02:20:33;-7.60;99.90
12119;DHT22;6123;48.864;9.200;2022-12-18T02:23:24;-7.50;99.90
12119;DHT22;6123;48.864;9.200;2022-12-18T02:28:42;-7.50;99.90
12119;DHT22;6123;48.864;9.200;2022-12-18T02:31:18;-7.60;99.90
12119;DHT22;6123;48.864;9.200;2022-12-18T02:33:45;-7.50;99.90
12119;DHT22;6123;48.864;9.200;2022-12-18T02:36:13;-7.50;99.90
12119;DHT22;6123;48.864;9.200;2022-12-18T02:38:42;-7.50;99.90
12119;DHT22;6123;48.864;9.200;2022-12-18T02:41:11;-7.50;99.90
12119;DHT22;6123;48.864;9.200;2022-12-18T02:43:38;-7.40;99.90
12119;DHT22;6123;48.864;9.200;2022-12-18T02:46:27;-7.50;99.90
12119;DHT22;6123;48.864;9.200;2022-12-18T02:51:50;-7.60;99.90
12119;DHT22;6123;48.864;9.200;2022-12-18T02:54:30;-7.50;99.90
12119;DHT22;6123;48.864;9.200;2022-12-18T02:57:11;-7.50;99.90
12119;DHT22;6123;48.864;9.200;2022-12-18T02:59:50;-7.40;99.90
12119;DHT22;6123;48.864;9.200;2022-12-18T03:02:36;-7.30;99.90
12119;DHT22;6123;48.864;9.200;2022-12-18T03:06:12;-7.40;99.90
12119;DHT22;6123;48.864;9.200;2022-12-18T03:08:21;-7.30;99.90
12119;DHT22;6123;48.864;9.200;2022-12-18T03:11:07;-7.50;99.90
12119;DHT22;6123;48.864;9.200;2022-12-18T03:13:46;-7.30;99.90
12119;DHT22;6123;48.864;9.200;2022-12-18T03:16:22;-7.40;99.90
12119;DHT22;6123;48.864;9.200;2022-12-18T03:18:57;-7.30;99.90
12119;DHT22;6123;48.864;9.200;2022-12-18T03:21:32;-7.40;99.90
12119;DHT22;6123;48.864;9.200;2022-12-18T03:23:58;-7.40;99.90
12119;DHT22;6123;48.864;9.200;2022-12-18T03:26:26;-7.30;99.90
12119;DHT22;6123;48.864;9.200;2022-12-18T03:29:03;-7.10;99.90
12119;DHT22;6123;48.864;9.200;2022-12-18T03:31:31;-6.90;99.90
12119;DHT22;6123;48.864;9.200;2022-12-18T03:34:01;-7.20;99.90
12119;DHT22;6123;48.864;9.200;2022-12-18T03:36:31;-7.30;99.90
12119;DHT22;6123;48.864;9.200;2022-12-18T03:38:57;-7.20;99.90
12119;DHT22;6123;48.864;9.200;2022-12-18T03:41:41;-7.10;99.90
12119;DHT22;6123;48.864;9.200;2022-12-18T03:49:28;-7.20;99.90
12119;DHT22;6123;48.864;9.200;2022-12-18T03:52:17;-7.10;99.90
12119;DHT22;6123;48.864;9.200;2022-12-18T03:54:44;-7.00;99.90
12119;DHT22;6123;48.864;9.200;2022-12-18T03:57:15;-7.10;99.90
12119;DHT22;6123;48.864;9.200;2022-12-18T03:59:44;-7.10;99.90
12119;DHT22;6123;48.864;9.200;2022-12-18T04:02:11;-7.10;99.90
12119;DHT22;6123;48.864;9.200;2022-12-18T04:04:38;-7.10;99.90
12119;DHT22;6123;48.864;9.200;2022-12-18T04:07:08;-7.10;99.90
12119;DHT22;6123;48.864;9.200;2022-12-18T04:09:37;-7.00;99.90
12119;DHT22;6123;48.864;9.200;2022-12-18T04:12:06;-7.10;99.90
12119;DHT22;6123;48.864;9.200;2022-12-18T04:14:32;-7.20;99.90
12119;DHT22;6123;48.864;9.200;2022-12-18T04:17:03;-7.10;99.90
12119;DHT22;6123;48.864;9.200;2022-12-18T04:19:29;-7.10;99.90
12119;DHT22;6123;48.864;9.200;2022-12-18T04:21:54;-7.20;99.90
12119;DHT22;6123;48.864;9.200;2022-12-18T04:24:20;-7.20;99.90
12119;DHT22;6123;48.864;9.200;2022-12-18T04:26:46;-7.20;99.90
12119;DHT22;6123;48.864;9.200;2022-12-18T04:29:14;-7.30;99.90
12119;DHT22;6123;48.864;9.200;2022-12-18T04:31:39;-7.40;99.90
12119;DHT22;6123;48.864;9.200;2022-12-18T04:34:05;-7.30;99.90
12119;DHT22;6123;48.864;9.200;2022-12-18T04:36:31;-7.20;99.90
12119;DHT22;6123;48.864;9.200;2022-12-18T04:38:56;-7.10;99.90
12119;DHT22;6123;48.864;9.200;2022-12-18T04:41:22;-7.00;99.90
12119;DHT22;6123;48.864;9.200;2022-12-18T04:43:47;-7.00;99.90
12119;DHT22;6123;48.864;9.200;2022-12-18T04:46:13;-7.10;99.90
12119;DHT22;6123;48.864;9.200;2022-12-18T04:48:39;-7.20;99.90
12119;DHT22;6123;48.864;9.200;2022-12-18T04:51:05;-7.30;99.90
12119;DHT22;6123;48.864;9.200;2022-12-18T04:53:31;-7.40;99.90
12119;DHT22;6123;48.864;9.200;2022-12-18T04:56:08;-7.30;99.90
12119;DHT22;6123;48.864;9.200;2022-12-18T04:58:35;-7.20;99.90
12119;DHT22;6123;48.864;9.200;2022-12-18T05:01:01;-7.30;99.90
12119;DHT22;6123;48.864;9.200;2022-12-18T05:03:26;-7.40;99.90
12119;DHT22;6123;48.864;9.200;2022-12-18T05:05:52;-7.40;99.90
12119;DHT22;6123;48.864;9.200;2022-12-18T05:08:21;-7.50;99.90
12119;DHT22;6123;48.864;9.200;2022-12-18T05:10:49;-7.60;99.90
12119;DHT22;6123;48.864;9.200;2022-12-18T05:13:15;-7.50;99.90
12119;DHT22;6123;48.864;9.200;2022-12-18T05:15:40;-7.50;99.90
12119;DHT22;6123;48.864;9.200;2022-12-18T05:18:07;-7.70;99.90
12119;DHT22;6123;48.864;9.200;2022-12-18T05:20:33;-7.80;99.90
12119;DHT22;6123;48.864;9.200;2022-12-18T05:22:58;-7.90;99.90
12119;DHT22;6123;48.864;9.200;2022-12-18T05:25:24;-7.90;99.90
12119;DHT22;6123;48.864;9.200;2022-12-18T05:27:52;-7.90;99.90
12119;DHT22;6123;48.864;9.200;2022-12-18T05:30:18;-7.90;99.90
12119;DHT22;6123;48.864;9.200;2022-12-18T05:32:44;-8.00;99.90
12119;DHT22;6123;48.864;9.200;2022-12-18T05:35:10;-7.90;99.90
12119;DHT22;6123;48.864;9.200;2022-12-18T05:37:36;-7.80;99.90
12119;DHT22;6123;48.864;9.200;2022-12-18T05:40:03;-7.80;99.90
12119;DHT22;6123;48.864;9.200;2022-12-18T05:42:30;-7.80;99.90
12119;DHT22;6123;48.864;9.200;2022-12-18T05:44:56;-7.80;99.90
12119;DHT22;6123;48.864;9.200;2022-12-18T05:47:21;-7.80;99.90
12119;DHT22;6123;48.864;9.200;2022-12-18T05:49:47;-7.80;99.90
12119;DHT22;6123;48.864;9.200;2022-12-18T05:52:12;-7.90;99.90
12119;DHT22;6123;48.864;9.200;2022-12-18T05:54:40;-8.00;99.90
12119;DHT22;6123;48.864;9.200;2022-12-18T05:57:06;-8.10;99.90
12119;DHT22;6123;48.864;9.200;2022-12-18T05:59:31;-8.00;99.90
12119;DHT22;6123;48.864;9.200;2022-12-18T06:01:59;-8.00;99.90
12119;DHT22;6123;48.864;9.200;2022-12-18T06:04:27;-8.10;99.90
12119;DHT22;6123;48.864;9.200;2022-12-18T06:06:54;-8.10;99.90
12119;DHT22;6123;48.864;9.200;2022-12-18T06:09:19;-8.20;99.90
12119;DHT22;6123;48.864;9.200;2022-12-18T06:11:47;-8.20;99.90
12119;DHT22;6123;48.864;9.200;2022-12-18T06:14:13;-8.30;99.90
12119;DHT22;6123;48.864;9.200;2022-12-18T06:16:38;-8.00;99.90
12119;DHT22;6123;48.864;9.200;2022-12-18T06:19:05;-8.20;99.90
12119;DHT22;6123;48.864;9.200;2022-12-18T06:21:33;-8.30;99.90
12119;DHT22;6123;48.864;9.200;2022-12-18T06:24:01;-8.30;99.90
12119;DHT22;6123;48.864;9.200;2022-12-18T06:26:27;-8.20;99.90
12119;DHT22;6123;48.864;9.200;2022-12-18T06:28:52;-8.20;99.90
12119;DHT22;6123;48.864;9.200;2022-12-18T06:31:18;-8.30;99.90
12119;DHT22;6123;48.864;9.200;2022-12-18T06:33:45;-8.30;99.90
12119;DHT22;6123;48.864;9.200;2022-12-18T06:36:14;-8.20;99.90
12119;DHT22;6123;48.864;9.200;2022-12-18T06:38:42;-8.40;99.90
12119;DHT22;6123;48.864;9.200;2022-12-18T06:41:09;-8.40;99.90
12119;DHT22;6123;48.864;9.200;2022-12-18T06:43:35;-8.50;99.90
12119;DHT22;6123;48.864;9.200;2022-12-18T06:46:03;-8.60;99.90
12119;DHT22;6123;48.864;9.200;2022-12-18T06:48:29;-8.40;99.90
12119;DHT22;6123;48.864;9.200;2022-12-18T06:50:55;-8.50;99.90
12119;DHT22;6123;48.864;9.200;2022-12-18T06:53:23;-8.40;99.90
12119;DHT22;6123;48.864;9.200;2022-12-18T06:55:48;-8.50;99.90
12119;DHT22;6123;48.864;9.200;2022-12-18T06:58:14;-8.60;99.90
12119;DHT22;6123;48.864;9.200;2022-12-18T07:00:40;-8.60;99.90
12119;DHT22;6123;48.864;9.200;2022-12-18T07:03:07;-8.50;99.90
12119;DHT22;6123;48.864;9.200;2022-12-18T07:05:32;-8.60;99.90
12119;DHT22;6123;48.864;9.200;2022-12-18T07:07:58;-8.50;99.90
12119;DHT22;6123;48.864;9.200;2022-12-18T07:10:24;-8.40;99.90
12119;DHT22;6123;48.864;9.200;2022-12-18T07:12:52;-8.50;99.90
12119;DHT22;6123;48.864;9.200;2022-12-18T07:15:18;-8.50;99.90
12119;DHT22;6123;48.864;9.200;2022-12-18T07:17:43;-8.50;99.90
12119;DHT22;6123;48.864;9.200;2022-12-18T07:20:09;-8.40;99.90
12119;DHT22;6123;48.864;9.200;2022-12-18T07:22:35;-8.30;99.90
12119;DHT22;6123;48.864;9.200;2022-12-18T07:25:01;-8.30;99.90
12119;DHT22;6123;48.864;9.200;2022-12-18T07:27:26;-8.40;99.90
12119;DHT22;6123;48.864;9.200;2022-12-18T07:29:52;-8.30;99.90
12119;DHT22;6123;48.864;9.200;2022-12-18T07:32:20;-8.30;99.90
12119;DHT22;6123;48.864;9.200;2022-12-18T07:34:46;-8.30;99.90
12119;DHT22;6123;48.864;9.200;2022-12-18T07:37:11;-8.20;99.90
12119;DHT22;6123;48.864;9.200;2022-12-18T07:39:37;-8.20;99.90
12119;DHT22;6123;48.864;9.200;2022-12-18T07:42:03;-8.20;99.90
12119;DHT22;6123;48.864;9.200;2022-12-18T07:44:46;-8.20;99.90
12119;DHT22;6123;48.864;9.200;2022-12-18T07:47:15;-8.20;99.90
12119;DHT22;6123;48.864;9.200;2022-12-18T07:49:43;-8.30;99.90
12119;DHT22;6123;48.864;9.200;2022-12-18T07:52:08;-8.30;99.90
12119;DHT22;6123;48.864;9.200;2022-12-18T07:54:35;-8.40;99.90
12119;DHT22;6123;48.864;9.200;2022-12-18T07:57:03;-8.40;99.90
12119;DHT22;6123;48.864;9.200;2022-12-18T07:59:28;-8.30;99.90
12119;DHT22;6123;48.864;9.200;2022-12-18T08:01:54;-8.40;99.90
12119;DHT22;6123;48.864;9.200;2022-12-18T08:04:19;-8.20;99.90
12119;DHT22;6123;48.864;9.200;2022-12-18T08:06:45;-8.10;99.90
12119;DHT22;6123;48.864;9.200;2022-12-18T08:09:11;-8.20;99.90
12119;DHT22;6123;48.864;9.200;2022-12-18T08:11:39;-8.10;99.90
12119;DHT22;6123;48.864;9.200;2022-12-18T08:14:04;-7.90;99.90
12119;DHT22;6123;48.864;9.200;2022-12-18T08:16:32;-8.00;99.90
12119;DHT22;6123;48.864;9.200;2022-12-18T08:18:58;-8.00;99.90
12119;DHT22;6123;48.864;9.200;2022-12-18T08:21:29;-7.90;99.90
12119;DHT22;6123;48.864;9.200;2022-12-18T08:23:56;-7.80;99.90
12119;DHT22;6123;48.864;9.200;2022-12-18T08:26:23;-7.70;99.90
12119;DHT22;6123;48.864;9.200;2022-12-18T08:28:50;-7.70;99.90
12119;DHT22;6123;48.864;9.200;2022-12-18T08:31:16;-7.60;99.90
12119;DHT22;6123;48.864;9.200;2022-12-18T08:33:44;-7.50;99.90
12119;DHT22;6123;48.864;9.200;2022-12-18T08:36:10;-7.30;99.90
12119;DHT22;6123;48.864;9.200;2022-12-18T08:38:35;-7.30;99.90
12119;DHT22;6123;48.864;9.200;2022-12-18T08:41:03;-7.20;99.90
12119;DHT22;6123;48.864;9.200;2022-12-18T08:43:28;-7.10;99.90
12119;DHT22;6123;48.864;9.200;2022-12-18T08:46:21;-7.10;99.90
12119;DHT22;6123;48.864;9.200;2022-12-18T08:48:48;-7.00;99.90
12119;DHT22;6123;48.864;9.200;2022-12-18T08:51:18;-7.00;99.90
12119;DHT22;6123;48.864;9.200;2022-12-18T08:53:44;-6.90;99.90
12119;DHT22;6123;48.864;9.200;2022-12-18T08:56:11;-6.80;99.90
12119;DHT22;6123;48.864;9.200;2022-12-18T08:58:40;-6.90;99.90
12119;DHT22;6123;48.864;9.200;2022-12-18T09:01:09;-6.70;99.90
12119;DHT22;6123;48.864;9.200;2022-12-18T09:03:35;-6.70;99.90
12119;DHT22;6123;48.864;9.200;2022-12-18T09:06:05;-6.70;99.90
12119;DHT22;6123;48.864;9.200;2022-12-18T09:08:34;-6.60;99.90
12119;DHT22;6123;48.864;9.200;2022-12-18T09:11:01;-6.60;99.90
12119;DHT22;6123;48.864;9.200;2022-12-18T09:13:28;-6.50;99.90
12119;DHT22;6123;48.864;9.200;2022-12-18T09:15:54;-6.40;99.90
12119;DHT22;6123;48.864;9.200;2022-12-18T09:18:22;-6.10;99.90
12119;DHT22;6123;48.864;9.200;2022-12-18T09:20:48;-6.10;99.90
12119;DHT22;6123;48.864;9.200;2022-12-18T09:23:15;-6.10;99.90
12119;DHT22;6123;48.864;9.200;2022-12-18T09:25:43;-5.80;99.90
12119;DHT22;6123;48.864;9.200;2022-12-18T09:28:17;-6.00;99.90
12119;DHT22;6123;48.864;9.200;2022-12-18T09:30:47;-5.90;99.90
12119;DHT22;6123;48.864;9.200;2022-12-18T09:33:17;-5.90;99.90
12119;DHT22;6123;48.864;9.200;2022-12-18T09:35:45;-5.80;99.90
12119;DHT22;6123;48.864;9.200;2022-12-18T09:38:20;-5.60;99.90
12119;DHT22;6123;48.864;9.200;2022-12-18T09:40:53;-5.50;99.90
12119;DHT22;6123;48.864;9.200;2022-12-18T09:46:05;-5.30;99.90
12119;DHT22;6123;48.864;9.200;2022-12-18T09:48:35;-5.20;99.90
12119;DHT22;6123;48.864;9.200;2022-12-18T09:51:13;-5.10;99.90
12119;DHT22;6123;48.864;9.200;2022-12-18T09:53:41;-5.00;99.90
12119;DHT22;6123;48.864;9.200;2022-12-18T09:56:15;-4.80;99.90
12119;DHT22;6123;48.864;9.200;2022-12-18T09:59:15;-4.60;99.90
12119;DHT22;6123;48.864;9.200;2022-12-18T10:01:43;-4.50;99.90
12119;DHT22;6123;48.864;9.200;2022-12-18T10:04:08;-4.20;99.90
12119;DHT22;6123;48.864;9.200;2022-12-18T10:06:39;-4.20;99.90
12119;DHT22;6123;48.864;9.200;2022-12-18T10:12:17;-4.20;99.90
12119;DHT22;6123;48.864;9.200;2022-12-18T10:19:59;-4.10;99.90
12119;DHT22;6123;48.864;9.200;2022-12-18T10:23:00;-3.90;99.90
12119;DHT22;6123;48.864;9.200;2022-12-18T10:28:16;-4.10;99.90
12119;DHT22;6123;48.864;9.200;2022-12-18T10:30:44;-4.00;99.90
12119;DHT22;6123;48.864;9.200;2022-12-18T10:33:31;-4.00;99.90
12119;DHT22;6123;48.864;9.200;2022-12-18T10:36:00;-3.90;99.90
12119;DHT22;6123;48.864;9.200;2022-12-18T10:38:30;-3.60;99.90
12119;DHT22;6123;48.864;9.200;2022-12-18T10:41:02;-3.40;99.90
12119;DHT22;6123;48.864;9.200;2022-12-18T10:43:28;-3.10;99.90
12119;DHT22;6123;48.864;9.200;2022-12-18T10:46:16;-3.20;99.90
12119;DHT22;6123;48.864;9.200;2022-12-18T10:51:31;-3.50;99.90
12119;DHT22;6123;48.864;9.200;2022-12-18T10:54:17;-3.30;99.90
12119;DHT22;6123;48.864;9.200;2022-12-18T10:56:47;-3.00;99.90
12119;DHT22;6123;48.864;9.200;2022-12-18T10:59:17;-2.90;99.90
12119;DHT22;6123;48.864;9.200;2022-12-18T11:01:50;-2.90;99.90
12119;DHT22;6123;48.864;9.200;2022-12-18T11:04:31;-1.90;99.90
12119;DHT22;6123;48.864;9.200;2022-12-18T11:07:04;-1.50;99.90
12119;DHT22;6123;48.864;9.200;2022-12-18T11:09:33;-1.30;99.90
12119;DHT22;6123;48.864;9.200;2022-12-18T11:12:01;-1.50;99.90
12119;DHT22;6123;48.864;9.200;2022-12-18T11:14:30;-1.70;99.90
12119;DHT22;6123;48.864;9.200;2022-12-18T11:16:58;-1.70;99.90
12119;DHT22;6123;48.864;9.200;2022-12-18T11:19:35;-1.50;99.90
12119;DHT22;6123;48.864;9.200;2022-12-18T11:22:18;-1.20;99.90
12119;DHT22;6123;48.864;9.200;2022-12-18T11:25:02;-1.20;99.90
12119;DHT22;6123;48.864;9.200;2022-12-18T11:27:30;-1.00;99.90
12119;DHT22;6123;48.864;9.200;2022-12-18T11:30:23;-0.80;99.90
12119;DHT22;6123;48.864;9.200;2022-12-18T11:40:59;-0.60;99.90
12119;DHT22;6123;48.864;9.200;2022-12-18T11:43:35;-0.40;99.90
12119;DHT22;6123;48.864;9.200;2022-12-18T11:46:09;-0.40;99.90
12119;DHT22;6123;48.864;9.200;2022-12-18T11:49:03;-0.30;99.90
12119;DHT22;6123;48.864;9.200;2022-12-18T11:51:42;0.00;99.90
12119;DHT22;6123;48.864;9.200;2022-12-18T11:54:13;0.00;99.90
12119;DHT22;6123;48.864;9.200;2022-12-18T11:59:20;-0.30;99.90
12119;DHT22;6123;48.864;9.200;2022-12-18T12:17:51;-0.10;99.90
12119;DHT22;6123;48.864;9.200;2022-12-18T12:20:39;0.20;99.90
12119;DHT22;6123;48.864;9.200;2022-12-18T12:23:49;0.40;99.90
12119;DHT22;6123;48.864;9.200;2022-12-18T12:26:42;0.10;99.90
12119;DHT22;6123;48.864;9.200;2022-12-18T12:29:42;0.30;99.90
12119;DHT22;6123;48.864;9.200;2022-12-18T12:40:24;-0.20;99.90
12119;DHT22;6123;48.864;9.200;2022-12-18T12:42:58;-0.30;99.90
12119;DHT22;6123;48.864;9.200;2022-12-18T12:45:48;-0.10;99.90
12119;DHT22;6123;48.864;9.200;2022-12-18T12:50:52;-0.10;99.90
12119;DHT22;6123;48.864;9.200;2022-12-18T12:53:26;-0.20;99.90
12119;DHT22;6123;48.864;9.200;2022-12-18T12:55:53;0.10;99.90
12119;DHT22;6123;48.864;9.200;2022-12-18T12:58:32;0.10;99.90
12119;DHT22;6123;48.864;9.200;2022-12-18T13:04:06;0.40;99.90
12119;DHT22;6123;48.864;9.200;2022-12-18T13:06:40;-0.10;99.90
12119;DHT22;6123;48.864;9.200;2022-12-18T13:09:06;0.20;99.90
12119;DHT22;6123;48.864;9.200;2022-12-18T13:14:23;-0.10;99.90
12119;DHT22;6123;48.864;9.200;2022-12-18T13:20:11;0.30;99.90
12119;DHT22;6123;48.864;9.200;2022-12-18T13:25:03;0.20;99.90
12119;DHT22;6123;48.864;9.200;2022-12-18T13:28:05;0.40;99.90
12119;DHT22;6123;48.864;9.200;2022-12-18T13:41:00;0.40;99.90
12119;DHT22;6123;48.864;9.200;2022-12-18T13:48:33;0.30;99.90
12119;DHT22;6123;48.864;9.200;2022-12-18T13:51:05;0.30;99.90
12119;DHT22;6123;48.864;9.200;2022-12-18T13:56:25;0.20;99.90
12119;DHT22;6123;48.864;9.200;2022-12-18T13:59:23;0.20;99.90
12119;DHT22;6123;48.864;9.200;2022-12-18T14:01:57;0.20;99.90
12119;DHT22;6123;48.864;9.200;2022-12-18T14:04:33;0.00;99.90
12119;DHT22;6123;48.864;9.200;2022-12-18T14:07:05;0.00;99.90
12119;DHT22;6123;48.864;9.200;2022-12-18T14:10:11;-0.10;99.90
12119;DHT22;6123;48.864;9.200;2022-12-18T14:12:38;-0.20;99.90
12119;DHT22;6123;48.864;9.200;2022-12-18T14:20:43;-0.30;99.90
12119;DHT22;6123;48.864;9.200;2022-12-18T14:23:33;-0.40;99.90
12119;DHT22;6123;48.864;9.200;2022-12-18T14:26:03;-0.30;99.90
12119;DHT22;6123;48.864;9.200;2022-12-18T14:28:31;-0.40;99.90
12119;DHT22;6123;48.864;9.200;2022-12-18T14:30:57;-0.50;99.90
12119;DHT22;6123;48.864;9.200;2022-12-18T14:33:25;-0.40;99.90
12119;DHT22;6123;48.864;9.200;2022-12-18T14:36:13;-0.60;99.90
12119;DHT22;6123;48.864;9.200;2022-12-18T14:38:43;-0.70;99.90
12119;DHT22;6123;48.864;9.200;2022-12-18T14:41:16;-0.70;99.90
12119;DHT22;6123;48.864;9.200;2022-12-18T14:43:45;-0.80;99.90
12119;DHT22;6123;48.864;9.200;2022-12-18T14:51:55;-1.10;99.90
12119;DHT22;6123;48.864;9.200;2022-12-18T14:54:24;-1.10;99.90
12119;DHT22;6123;48.864;9.200;2022-12-18T14:57:05;-1.20;99.90
12119;DHT22;6123;48.864;9.200;2022-12-18T14:59:34;-1.20;99.90
12119;DHT22;6123;48.864;9.200;2022-12-18T15:04:41;-1.30;99.90
12119;DHT22;6123;48.864;9.200;2022-12-18T15:09:36;-1.40;99.90
12119;DHT22;6123;48.864;9.200;2022-12-18T15:12:02;-1.40;99.90
12119;DHT22;6123;48.864;9.200;2022-12-18T15:16:58;-1.60;99.90
12119;DHT22;6123;48.864;9.200;2022-12-18T15:19:38;-1.80;99.90
12119;DHT22;6123;48.864;9.200;2022-12-18T15:22:33;-1.90;99.90
12119;DHT22;6123;48.864;9.200;2022-12-18T15:25:03;-2.00;99.90
12119;DHT22;6123;48.864;9.200;2022-12-18T15:27:46;-2.10;99.90
12119;DHT22;6123;48.864;9.200;2022-12-18T15:30:18;-1.90;99.90
12119;DHT22;6123;48.864;9.200;2022-12-18T15:32:44;-1.90;99.90
12119;DHT22;6123;48.864;9.200;2022-12-18T15:35:20;-1.90;99.90
12119;DHT22;6123;48.864;9.200;2022-12-18T15:37:48;-1.90;99.90
12119;DHT22;6123;48.864;9.200;2022-12-18T15:40:22;-2.10;99.90
12119;DHT22;6123;48.864;9.200;2022-12-18T15:42:50;-2.10;99.90
12119;DHT22;6123;48.864;9.200;2022-12-18T15:45:34;-1.90;99.90
12119;DHT22;6123;48.864;9.200;2022-12-18T15:48:15;-1.80;99.90
12119;DHT22;6123;48.864;9.200;2022-12-18T15:50:44;-1.90;99.90
12119;DHT22;6123;48.864;9.200;2022-12-18T15:53:09;-2.10;99.90
12119;DHT22;6123;48.864;9.200;2022-12-18T15:55:35;-2.10;99.90
12119;DHT22;6123;48.864;9.200;2022-12-18T15:58:19;-2.00;99.90
12119;DHT22;6123;48.864;9.200;2022-12-18T16:00:46;-2.10;99.90
12119;DHT22;6123;48.864;9.200;2022-12-18T16:03:11;-2.10;99.90
12119;DHT22;6123;48.864;9.200;2022-12-18T16:05:39;-2.10;99.90
12119;DHT22;6123;48.864;9.200;2022-12-18T16:08:07;-2.10;99.90
12119;DHT22;6123;48.864;9.200;2022-12-18T16:10:33;-2.20;99.90
12119;DHT22;6123;48.864;9.200;2022-12-18T16:13:01;-2.30;99.90
12119;DHT22;6123;48.864;9.200;2022-12-18T16:15:26;-2.30;99.90
12119;DHT22;6123;48.864;9.200;2022-12-18T16:17:52;-2.20;99.90
12119;DHT22;6123;48.864;9.200;2022-12-18T16:20:21;-2.20;99.90
12119;DHT22;6123;48.864;9.200;2022-12-18T16:22:50;-2.30;99.90
12119;DHT22;6123;48.864;9.200;2022-12-18T16:25:18;-2.30;99.90
12119;DHT22;6123;48.864;9.200;2022-12-18T16:27:44;-2.40;99.90
12119;DHT22;6123;48.864;9.200;2022-12-18T16:30:18;-2.40;99.90
12119;DHT22;6123;48.864;9.200;2022-12-18T16:32:44;-2.20;99.90
12119;DHT22;6123;48.864;9.200;2022-12-18T16:35:12;-2.30;99.90
12119;DHT22;6123;48.864;9.200;2022-12-18T16:37:38;-2.30;99.90
12119;DHT22;6123;48.864;9.200;2022-12-18T16:40:11;-2.30;99.90
12119;DHT22;6123;48.864;9.200;2022-12-18T16:42:39;-2.30;99.90
12119;DHT22;6123;48.864;9.200;2022-12-18T16:45:06;-2.30;99.90
12119;DHT22;6123;48.864;9.200;2022-12-18T16:47:33;-2.40;99.90
12119;DHT22;6123;48.864;9.200;2022-12-18T16:49:59;-2.40;99.90
12119;DHT22;6123;48.864;9.200;2022-12-18T16:52:24;-2.30;99.90
12119;DHT22;6123;48.864;9.200;2022-12-18T16:54:50;-2.20;99.90
12119;DHT22;6123;48.864;9.200;2022-12-18T16:57:19;-2.30;99.90
12119;DHT22;6123;48.864;9.200;2022-12-18T16:59:50;-2.40;99.90
12119;DHT22;6123;48.864;9.200;2022-12-18T17:02:21;-2.40;99.90
12119;DHT22;6123;48.864;9.200;2022-12-18T17:04:49;-2.40;99.90
12119;DHT22;6123;48.864;9.200;2022-12-18T17:07:19;-2.40;99.90
12119;DHT22;6123;48.864;9.200;2022-12-18T17:09:48;-2.40;99.90
12119;DHT22;6123;48.864;9.200;2022-12-18T17:12:17;-2.50;99.90
12119;DHT22;6123;48.864;9.200;2022-12-18T17:14:43;-2.40;99.90
12119;DHT22;6123;48.864;9.200;2022-12-18T17:17:12;-2.40;99.90
12119;DHT22;6123;48.864;9.200;2022-12-18T17:19:40;-2.40;99.90
12119;DHT22;6123;48.864;9.200;2022-12-18T17:22:06;-2.40;99.90
12119;DHT22;6123;48.864;9.200;2022-12-18T17:24:32;-2.50;99.90
12119;DHT22;6123;48.864;9.200;2022-12-18T17:26:58;-2.60;99.90
12119;DHT22;6123;48.864;9.200;2022-12-18T17:29:23;-2.60;99.90
12119;DHT22;6123;48.864;9.200;2022-12-18T17:31:51;-2.50;99.90
12119;DHT22;6123;48.864;9.200;2022-12-18T17:34:19;-2.60;99.90
12119;DHT22;6123;48.864;9.200;2022-12-18T17:36:46;-2.50;99.90
12119;DHT22;6123;48.864;9.200;2022-12-18T17:39:17;-2.40;99.90
12119;DHT22;6123;48.864;9.200;2022-12-18T17:41:43;-2.50;99.90
12119;DHT22;6123;48.864;9.200;2022-12-18T17:44:09;-2.60;99.90
12119;DHT22;6123;48.864;9.200;2022-12-18T17:46:34;-2.70;99.90
12119;DHT22;6123;48.864;9.200;2022-12-18T17:49:02;-2.60;99.90
12119;DHT22;6123;48.864;9.200;2022-12-18T17:51:31;-2.70;99.90
12119;DHT22;6123;48.864;9.200;2022-12-18T17:53:56;-2.70;99.90
12119;DHT22;6123;48.864;9.200;2022-12-18T17:56:25;-2.70;99.90
12119;DHT22;6123;48.864;9.200;2022-12-18T17:58:51;-2.60;99.90
12119;DHT22;6123;48.864;9.200;2022-12-18T18:01:22;-2.60;99.90
12119;DHT22;6123;48.864;9.200;2022-12-18T18:03:49;-2.50;99.90
12119;DHT22;6123;48.864;9.200;2022-12-18T18:06:15;-2.60;99.90
12119;DHT22;6123;48.864;9.200;2022-12-18T18:08:41;-2.60;99.90
12119;DHT22;6123;48.864;9.200;2022-12-18T18:11:11;-2.60;99.90
12119;DHT22;6123;48.864;9.200;2022-12-18T18:13:55;-2.50;99.90